Messwerte Ft. Richardson

Temperatur

Temperatur
°C
1576346400 9.00 9.00 -3
1576350000 10.00 10.00 -3
1576353600 11.00 11.00 -1
1576357200 12.00 12.00
1576360800 13.00 13.00 -1
1576364400 14.00 14.00 -2
1576368000 15.00 15.00 -2
1576371600 16.00 16.00
1576375200 17.00 17.00
1576378800 18.00 18.00 -5
1576382400 19.00 19.00
1576386000 20.00 20.00 -5
1576389600 21.00 21.00 -5
1576393200 22.00 22.00 -3
1576396800 23.00 23.00 -5
1576400400 0.00 0.00 -6
1576404000 1.00 1.00 -7
1576407600 2.00 2.00 -6
1576411200 3.00 3.00 -8
1576414800 4.00 4.00 -7
1576418400 5.00 5.00 -8
1576422000 6.00 6.00 -9
1576425600 7.00 7.00 -9
1576429200 8.00 8.00 -9

Aktuellste Messwerte

Wettercharakter
Wetter: freundlich
Temperatur
-9 °C
Feuchtigkeit
92 %
Wind
0 km/h, -
Luftdruck
1001 hPa
Messzeit: 15. Dezember 2019, 9.00Datenquelle: METAR

Weitere Messstationen in der Nähe

Messstation Temperatur Entfernung
Anchorage – Elmendor -7 °C 8 km
Anchorage -5 °C 12 km
Birchwood -6 °C 18 km
Anchorage -3 °C 20 km
Anchorage -1 °C 22 km
Wasilla 1 °C 34 km
Palmer -1 °C 48 km

Wind

Windrichtung Böen Mittelwind
° km/h km/h
1576346400 9.00 8.00 - 9.00 0
1576350000 10.00 9.00 - 10.00 170° 15
1576353600 11.00 10.00 - 11.00 300° 5
1576357200 12.00 11.00 - 12.00
1576360800 13.00 12.00 - 13.00 40° 5
1576364400 14.00 13.00 - 14.00 70° 5
1576368000 15.00 14.00 - 15.00 0
1576371600 16.00 15.00 - 16.00
1576375200 17.00 16.00 - 17.00
1576378800 18.00 17.00 - 18.00 70° 5
1576382400 19.00 18.00 - 19.00
1576386000 20.00 19.00 - 20.00 0
1576389600 21.00 20.00 - 21.00 0
1576393200 22.00 21.00 - 22.00 330° 10
1576396800 23.00 22.00 - 23.00 0
1576400400 0.00 23.00 - 0.00 0
1576404000 1.00 0.00 - 1.00 0
1576407600 2.00 1.00 - 2.00 90° 5
1576411200 3.00 2.00 - 3.00 0
1576414800 4.00 3.00 - 4.00 0
1576418400 5.00 4.00 - 5.00 0
1576422000 6.00 5.00 - 6.00 180° 5
1576425600 7.00 6.00 - 7.00 0
1576429200 8.00 7.00 - 8.00 0

Ihre Wetterstation

Fehlt Ihre Wetterstation auf unserem Portal?

Schreiben Sie an network@meteonews.ch

Klima

Wann ist es am wärmsten? Wann regnet es am wenigsten? Unsere Klimadaten geben Auskunft.